CCGS Henry Larsen — CGHL — position and weather

sailwx.info

Track history (hours):
 
Tides and Currents Weather Stations Pressure Air Temp Water Temp Dewpoint Dewpoint Depression Visibility Wind Speed Wind Dir Waves Ship Positions

CCGS Henry Larsen (Canada)

Medium Gulf/River Icebreaker

Last reported at 2018-Apr-26 11:00 UTC. Time now 2018-Apr-26 11:45 UTC.
Position N 51°42' W 055°30'.

Length 100.03 m; beam 19.82 m; draft 7.2 m.

Type: SAR. MMSI: 316013000.

Wind from 130 at 3 knots

Barometer 1021.6 mb
Air temperature 2.3 ° C
Dewpoint 1.5 ° C

Date/timePositionNaut miles runAvg speedWind from/ knotsBaromVisibWave heightAir tempDewpointWater temp
2018-Apr-26 11:00N 51°42' W 055°30'0 0.0 130 / 31021.6 2.3 1.5
2018-Apr-26 10:00N 51°42' W 055°30'0 0.0 130 / 51021.2 1.1 0.9
2018-Apr-26 09:00N 51°42' W 055°30'0 0.0 190 / 31020.4 0.4 0.3
2018-Apr-26 08:00N 51°42' W 055°30'6 2.0 180 / 61019.9 0.2-0.0
2018-Apr-26 05:00N 51°48' W 055°30'7 3.5 210 / 101019.5 0.8 0.5
2018-Apr-26 03:00N 51°42' W 055°24'6 6.0 220 / 141018.9 1.3 0.8
2018-Apr-26 02:00N 51°48' W 055°24'0 0.0 220 / 221018.2 1.1 0.8
2018-Apr-26 01:00N 51°48' W 055°24'4 3.7 210 / 221018.2 0.7 0.5
2018-Apr-26 00:00N 51°48' W 055°30'0 0.0 210 / 171018.0 1.1 0.8
2018-Apr-25 23:00N 51°48' W 055°30'0 0.0 200 / 141017.7 1.4 0.9
2018-Apr-25 22:00N 51°48' W 055°30'0 0.0 200 / 111017.2 2.4 1.1
2018-Apr-25 21:00N 51°48' W 055°30'0 0.0 200 / 161016.6 2.0 0.8
2018-Apr-25 20:00N 51°48' W 055°30'10 9.5 200 / 161016.3 2.7 0.9
2018-Apr-25 19:00N 51°42' W 055°42'1111.2 240 / 131016.6 4.1 1.4
2018-Apr-25 18:00N 51°42' W 056°00'1616.1 240 / 221016.8 1.5 0.5
2018-Apr-25 17:00N 51°36' W 056°24'1312.7 180 / 211016.1 0.9 0.7
2018-Apr-25 16:00N 51°42' W 056°06'10 9.6 180 / 291015.9 0.8 0.4
2018-Apr-25 15:00N 51°36' W 056°18'1919.2 240 / 221017.1 1.0 0.2
2018-Apr-25 14:00N 51°24' W 056°42'7 7.1 200 / 121017.7 1.5 0.9
2018-Apr-25 13:00N 51°18' W 056°48'0 0.0 210 / 71018.0 1.3 0.8
2018-Apr-25 12:00N 51°18' W 056°48'6 6.0 210 / 131017.8 1.0 0.3
2018-Apr-25 11:00N 51°12' W 056°48'0 0.0 180 / 101017.0 2.5-0.0
2018-Apr-25 10:00N 51°12' W 056°48'0 0.0 160 / 121016.5 2.0-0.3
2018-Apr-25 09:00N 51°12' W 056°48'0 0.0 160 / 81016.3 1.3-0.2
2018-Apr-25 08:00N 51°12' W 056°48'0 0.0 160 / 111015.9 0.9-0.3
2018-Apr-25 07:00N 51°12' W 056°48'0 0.0 170 / 131015.7 1.1-0.1
2018-Apr-25 06:00N 51°12' W 056°48'0 0.0 180 / 141015.8 0.7-0.0
2018-Apr-25 05:00N 51°12' W 056°48'0 0.0 200 / 121015.7 0.8-0.1
2018-Apr-25 04:00N 51°12' W 056°48'0 0.0 190 / 151015.3 1.0-0.2
2018-Apr-25 03:00N 51°12' W 056°48'0 0.0 180 / 141015.1 1.4-0.5
2018-Apr-25 02:00N 51°12' W 056°48'0 0.0 200 / 141015.0 1.7-0.7
2018-Apr-25 01:00N 51°12' W 056°48'0 0.0 190 / 131014.5 1.7-0.8
2018-Apr-25 00:00N 51°12' W 056°48'0 0.0 170 / 181013.5 1.9-0.9
2018-Apr-24 23:00N 51°12' W 056°48'0 0.0 170 / 231012.7 2.1-1.0
2018-Apr-24 22:00N 51°12' W 056°48'20 9.9 170 / 201012.9 2.1-0.5
2018-Apr-24 20:00N 51°06' W 057°18'1616.2 150 / 341011.8 1.6 0.6
2018-Apr-24 19:00N 51°12' W 056°54'4 3.8 160 / 381011.2 2.7-0.7
2018-Apr-24 18:00N 51°12' W 056°48'0 0.0 170 / 201012.9 4.8-1.9
2018-Apr-24 17:00N 51°12' W 056°48'0 0.0 200 / 111014.6 4.8-1.4
2018-Apr-24 16:00N 51°12' W 056°48'1312.8 190 / 241016.0 3.5-1.1
2018-Apr-24 15:00N 51°06' W 057°06'10 9.6 220 / 171016.5 2.1-0.6
2018-Apr-24 14:00N 51°12' W 056°54'4 3.8 160 / 361016.1 2.8-1.5
2018-Apr-24 13:00N 51°12' W 056°48'0 0.0 180 / 131017.1 5.1-1.9
2018-Apr-24 12:00N 51°12' W 056°48'0 0.0 230 / 71017.2 3.9-1.4
2018-Apr-24 11:00N 51°12' W 056°48'0 0.0 160 / 171017.6 2.0-1.4
2018-Apr-24 10:00N 51°12' W 056°48'0 0.0 160 / 171017.8 1.2-1.3
2018-Apr-24 08:00N 51°12' W 056°48'0 0.0 170 / 181018.1 0.6-0.9
2018-Apr-24 07:00N 51°12' W 056°48'0 0.0 170 / 171018.2 0.5-1.0
2018-Apr-24 06:00N 51°12' W 056°48'0 0.0 170 / 151018.6 0.5-1.2
2018-Apr-24 05:00N 51°12' W 056°48'0 0.0 160 / 131018.7 0.4-1.5
2018-Apr-24 04:00N 51°12' W 056°48'0 0.0 160 / 141018.8 0.6-1.3
2018-Apr-24 03:00N 51°12' W 056°48'0 0.0 170 / 171018.7 0.6-1.1
2018-Apr-24 02:00N 51°12' W 056°48'0 0.0 170 / 151018.4 0.8-1.3
2018-Apr-24 01:00N 51°12' W 056°48'0 0.0 170 / 181018.0 0.8-1.3
2018-Apr-24 00:00N 51°12' W 056°48'0 0.0 170 / 181017.6 0.9-1.5
2018-Apr-23 23:00N 51°12' W 056°48'0 0.0 160 / 211017.2 1.2-2.1
2018-Apr-23 22:00N 51°12' W 056°48'0 0.0 160 / 181017.4 1.5-1.5
2018-Apr-23 21:00N 51°12' W 056°48'0 0.0 160 / 161017.4 1.9-2.2
2018-Apr-23 19:00N 51°12' W 056°48'0 0.0 170 / 181017.5 3.4-5.1
2018-Apr-23 18:00N 51°12' W 056°48'4 3.8 210 / 71018.3 3.1-3.1
2018-Apr-23 17:00N 51°12' W 056°54'1919.3 230 / 141019.0 1.6-1.6
2018-Apr-23 16:00N 51°00' W 057°18'1312.6 230 / 171019.8 0.4-2.8
2018-Apr-23 15:00N 50°48' W 057°24'1414.2 220 / 171020.5 0.5-2.5
2018-Apr-23 14:00N 50°36' W 057°36'1312.6 230 / 151020.8 0.4-3.2
2018-Apr-23 13:00N 50°24' W 057°42'7 7.1 190 / 121021.0 0.1-2.8
2018-Apr-23 12:00N 50°18' W 057°48'6 6.0 180 / 131020.7 0.4-1.3
2018-Apr-23 11:00N 50°12' W 057°48'4 3.8 190 / 101020.4 1.3-1.9
2018-Apr-23 10:00N 50°12' W 057°54'6 6.0 200 / 101019.8 1.1-3.4
2018-Apr-23 09:00N 50°06' W 057°54'0 0.0 180 / 151019.2 -0.3-0.5
2018-Apr-23 08:00N 50°06' W 057°54'1312.6 170 / 181019.0 -0.5-0.7
2018-Apr-23 07:00N 49°54' W 058°00'4 3.9 180 / 181019.3 -0.4-0.7
2018-Apr-23 06:00N 49°54' W 058°06'6 6.0 170 / 171018.9 -0.3-1.2
2018-Apr-23 05:00N 49°48' W 058°06'7 7.1 180 / 131018.9 0.6-1.1
2018-Apr-23 04:00N 49°42' W 058°12'7 7.1 180 / 191019.2 -0.4-1.7
2018-Apr-23 03:00N 49°36' W 058°18'12 6.0 180 / 161019.7 -0.6-2.2
2018-Apr-23 01:00N 49°24' W 058°18'6 6.0 170 / 141019.9 -0.8-3.2
2018-Apr-23 00:00N 49°18' W 058°18'336.4 190 / 151019.6 -0.6-4.3
2018-Apr-22 23:55N 49°15' W 058°17'1212.5
2018-Apr-22 23:00N 49°06' W 058°06'10 9.9 200 / 101019.1 -0.6-4.0
2018-Apr-22 22:00N 49°12' W 057°54'0 0.0 240 / 71018.4 0.7-5.1
2018-Apr-22 21:00N 49°12' W 057°54'0 0.0 150 / 81018.3 2.1-4.5
2018-Apr-22 20:00N 49°12' W 057°54'0 0.0 210 / 71017.9 1.6-5.2
2018-Apr-22 19:00N 49°12' W 057°54'0 0.0 260 / 31017.3 1.7-4.8
2018-Apr-22 18:00N 49°12' W 057°54'10 9.9 220 / 91017.1 1.9-4.1
2018-Apr-22 17:00N 49°06' W 058°06'527.6 290 / 131017.3 0.7-3.3
2018-Apr-22 16:48N 49°10' W 058°12'1 3.2
2018-Apr-22 16:21N 49°10' W 058°14'2 5.8
2018-Apr-22 16:00N 49°12' W 058°12'2726.8 240 / 91016.9 -0.1-3.8
2018-Apr-22 15:59N 49°10' W 058°14'0 0.9
2018-Apr-22 15:30N 49°10' W 058°15'3 5.6
2018-Apr-22 15:00N 49°09' W 058°11'3860.7
2018-Apr-22 15:00N 49°12' W 058°12'1020.3 260 / 181016.2 0.2-3.3
2018-Apr-22 14:31N 49°03' W 058°08'5 9.0
2018-Apr-22 14:00N 48°59' W 058°04'3 5.8
2018-Apr-22 13:31N 48°58' W 057°59'2 3.9
2018-Apr-22 13:01N 48°58' W 057°57'4229.2
2018-Apr-22 13:00N 48°54' W 057°54'4 8.2 200 / 91016.1 0.9-2.8
2018-Apr-22 12:31N 48°58' W 057°57'0 0.0
2018-Apr-22 12:00N 48°58' W 057°57'4240.9
2018-Apr-22 12:00N 48°54' W 057°54'4 8.2 200 / 91015.8 0.7-2.8
2018-Apr-22 11:31N 48°58' W 057°57'0 0.0
2018-Apr-22 11:00N 48°58' W 057°57'4245.0
2018-Apr-22 11:00N 48°54' W 057°54'4 8.2 200 / 81015.6 0.5-2.5
2018-Apr-22 10:31N 48°58' W 057°57'0 0.0
2018-Apr-22 10:01N 48°58' W 057°57'4229.2
2018-Apr-22 10:00N 48°54' W 057°54'4 8.2 200 / 51015.3 0.5-1.6
2018-Apr-22 09:31N 48°58' W 057°57'0 0.0
2018-Apr-22 09:00N 48°58' W 057°57'4273.3
2018-Apr-22 09:00N 48°54' W 057°54'4 8.2 190 / 51014.6 -0.5-2.0
2018-Apr-22 08:31N 48°58' W 057°57'0 0.0
2018-Apr-22 08:01N 48°58' W 057°57'4236.8
2018-Apr-22 08:00N 48°54' W 057°54'4 8.2 190 / 51014.2 -0.3-1.9
2018-Apr-22 07:31N 48°58' W 057°57'0 0.0
2018-Apr-22 07:01N 48°58' W 057°57'4236.8
2018-Apr-22 07:00N 48°54' W 057°54'4 8.2 200 / 91013.9 -0.1-1.7
2018-Apr-22 06:31N 48°58' W 057°57'0 0.0
2018-Apr-22 06:00N 48°58' W 057°57'4296.0
2018-Apr-22 06:00N 48°54' W 057°54'4 8.1 180 / 101013.3 -0.1-1.0
2018-Apr-22 05:30N 48°58' W 057°57'0 0.0
2018-Apr-22 05:01N 48°58' W 057°57'4236.8
2018-Apr-22 05:00N 48°54' W 057°54'4 8.2 190 / 111013.0 0.2-0.4
2018-Apr-22 04:31N 48°58' W 057°57'0 0.0
2018-Apr-22 04:01N 48°58' W 057°57'4236.8
2018-Apr-22 04:00N 48°54' W 057°54'4 8.2 200 / 71013.0 0.9-0.0
2018-Apr-22 03:31N 48°58' W 057°57'0 0.0
2018-Apr-22 03:01N 48°58' W 057°57'4236.8
2018-Apr-22 03:00N 48°54' W 057°54'4 8.2 1013.0 1.7 0.2
2018-Apr-22 02:31N 48°58' W 057°57'0 0.0
2018-Apr-22 02:01N 48°58' W 057°57'0 0.0
2018-Apr-22 01:31N 48°58' W 057°57'0 0.0
2018-Apr-22 01:01N 48°58' W 057°57'4236.8
2018-Apr-22 01:00N 48°54' W 057°54'4 8.2 210 / 71012.5 1.4 0.5
2018-Apr-22 00:31N 48°58' W 057°57'0 0.0
2018-Apr-22 00:01N 48°58' W 057°57'4236.8
2018-Apr-22 00:00N 48°54' W 057°54'4 8.2 190 / 101012.2 1.0 0.6
2018-Apr-21 23:31N 48°58' W 057°57'0 0.0
2018-Apr-21 23:01N 48°58' W 057°57'4236.8
2018-Apr-21 23:00N 48°54' W 057°54'4 8.2 170 / 91011.3 0.9 0.3
2018-Apr-21 22:31N 48°58' W 057°57'0 0.0
2018-Apr-21 22:01N 48°58' W 057°57'4236.8
2018-Apr-21 22:00N 48°54' W 057°54'4 8.2 190 / 71010.5 0.6 0.3
2018-Apr-21 21:31N 48°58' W 057°57'0 0.0
2018-Apr-21 21:00N 48°58' W 057°57'4355.3
2018-Apr-21 21:00N 48°54' W 057°54'4 8.2 210 / 141009.7 0.6 0.4
2018-Apr-21 20:30N 48°58' W 057°57'0 0.0
2018-Apr-21 20:01N 48°58' W 057°57'4236.8
2018-Apr-21 20:00N 48°54' W 057°54'4 8.2 210 / 151009.0 0.6 0.1
2018-Apr-21 19:31N 48°58' W 057°57'0 0.0
2018-Apr-21 19:01N 48°58' W 057°57'4236.8
2018-Apr-21 19:00N 48°54' W 057°54'4 8.2 210 / 161008.6 0.3-0.1
2018-Apr-21 18:31N 48°58' W 057°57'0 0.0
2018-Apr-21 18:01N 48°58' W 057°57'4236.8
2018-Apr-21 18:00N 48°54' W 057°54'4 8.2 210 / 151008.0 0.1-0.4
2018-Apr-21 17:31N 48°58' W 057°57'0 0.0
2018-Apr-21 17:01N 48°58' W 057°57'4236.8
2018-Apr-21 17:00N 48°54' W 057°54'4 8.2 210 / 131007.8 -0.0-0.5
2018-Apr-21 16:31N 48°58' W 057°57'0 0.0
2018-Apr-21 16:01N 48°58' W 057°57'4236.8
2018-Apr-21 16:00N 48°54' W 057°54'4 8.2 200 / 121007.5 -0.5-0.7
2018-Apr-21 15:31N 48°58' W 057°57'0 0.0
2018-Apr-21 15:01N 48°58' W 057°57'4236.8
2018-Apr-21 15:00N 48°54' W 057°54'4 8.2 200 / 121007.3 -0.6-0.8
2018-Apr-21 14:31N 48°58' W 057°57'0 0.0
2018-Apr-21 14:01N 48°58' W 057°57'4236.8
2018-Apr-21 14:00N 48°54' W 057°54'4 8.2 200 / 121006.9 -0.8-1.0
2018-Apr-21 13:31N 48°58' W 057°57'0 0.0
2018-Apr-21 13:01N 48°58' W 057°57'4236.8
2018-Apr-21 13:00N 48°54' W 057°54'4 8.1 200 / 131006.5 -0.7-0.9
2018-Apr-21 12:30N 48°58' W 057°57'0 0.0
2018-Apr-21 12:01N 48°58' W 057°57'4236.8
2018-Apr-21 12:00N 48°54' W 057°54'4 8.2 190 / 131006.0 -1.1-1.3
2018-Apr-21 11:31N 48°58' W 057°57'0 0.0
2018-Apr-21 11:01N 48°58' W 057°57'4236.8
2018-Apr-21 11:00N 48°54' W 057°54'4 8.2 190 / 131005.6 -1.2-1.4
2018-Apr-21 10:31N 48°58' W 057°57'0 0.0
2018-Apr-21 10:01N 48°58' W 057°57'4236.8
2018-Apr-21 10:00N 48°54' W 057°54'4 8.2 190 / 131004.9 -1.3-1.5
2018-Apr-21 09:31N 48°58' W 057°57'0 0.0
2018-Apr-21 09:01N 48°58' W 057°57'4236.8
2018-Apr-21 09:00N 48°54' W 057°54'4 8.2 190 / 141004.5 -1.3-1.5
2018-Apr-21 08:31N 48°58' W 057°57'0 0.0
2018-Apr-21 08:00N 48°58' W 057°57'4245.0
2018-Apr-21 08:00N 48°54' W 057°54'4 8.2 190 / 161003.6 -1.2-1.3
2018-Apr-21 07:31N 48°58' W 057°57'0 0.0
2018-Apr-21 07:01N 48°58' W 057°57'4236.8
2018-Apr-21 07:00N 48°54' W 057°54'4 8.2 200 / 161003.2 -1.0-1.1
2018-Apr-21 06:31N 48°58' W 057°57'0 0.0
2018-Apr-21 06:00N 48°58' W 057°57'4273.3
2018-Apr-21 06:00N 48°54' W 057°54'4 8.2 200 / 161002.6 -0.8-1.0
2018-Apr-21 05:31N 48°58' W 057°57'0 0.0
2018-Apr-21 05:01N 48°58' W 057°57'4229.2
2018-Apr-21 05:00N 48°54' W 057°54'4 8.2 200 / 151002.1 -0.6-0.8
2018-Apr-21 04:31N 48°58' W 057°57'0 0.0
2018-Apr-21 04:01N 48°58' W 057°57'4236.8
2018-Apr-21 04:00N 48°54' W 057°54'4 8.2 190 / 141002.2 -0.4-0.6
2018-Apr-21 03:31N 48°58' W 057°57'0 0.0
2018-Apr-21 03:01N 48°58' W 057°57'4236.8
2018-Apr-21 03:00N 48°54' W 057°54'4 8.2 190 / 151002.1 -0.3-0.5
2018-Apr-21 02:31N 48°58' W 057°57'0 0.0
2018-Apr-21 02:01N 48°58' W 057°57'4236.8
2018-Apr-21 02:00N 48°54' W 057°54'4 8.2 190 / 121002.2 -0.4-0.5
2018-Apr-21 01:31N 48°58' W 057°57'0 0.0
2018-Apr-21 01:01N 48°58' W 057°57'4236.8
2018-Apr-21 01:00N 48°54' W 057°54'4 8.2 190 / 131002.3 -0.3-0.4
2018-Apr-21 00:31N 48°58' W 057°57'0 0.0
2018-Apr-21 00:01N 48°58' W 057°57'4236.8
2018-Apr-21 00:00N 48°54' W 057°54'4 8.2 200 / 111002.6 -0.3-0.4
2018-Apr-20 23:31N 48°58' W 057°57'0 0.0
2018-Apr-20 23:00N 48°58' W 057°57'4273.3
2018-Apr-20 23:00N 48°54' W 057°54'4 8.0 190 / 31002.8 -0.3-0.4
2018-Apr-20 22:30N 48°58' W 057°57'0 0.0
2018-Apr-20 22:01N 48°58' W 057°57'4229.2
2018-Apr-20 22:00N 48°54' W 057°54'4 8.2 230 / 21002.8 -0.2-0.3
2018-Apr-20 21:31N 48°58' W 057°57'0 0.0
2018-Apr-20 21:01N 48°58' W 057°57'4236.8
2018-Apr-20 21:00N 48°54' W 057°54'4 8.2 240 / 11002.9 0.1-0.1
2018-Apr-20 20:31N 48°58' W 057°57'0 0.0
2018-Apr-20 20:01N 48°58' W 057°57'4236.8
2018-Apr-20 20:00N 48°54' W 057°54'4 8.2 330 / 101002.5 0.9 0.7
2018-Apr-20 19:31N 48°58' W 057°57'0 0.0
2018-Apr-20 19:01N 48°58' W 057°57'0 0.0
2018-Apr-20 18:31N 48°58' W 057°57'0 0.0
2018-Apr-20 18:00N 48°58' W 057°57'4253.8
2018-Apr-20 18:00N 48°54' W 057°54'4 8.2 340 / 121003.4 2.0 0.4
2018-Apr-20 17:31N 48°58' W 057°57'0 0.0
2018-Apr-20 17:00N 48°58' W 057°57'4273.3
2018-Apr-20 17:00N 48°54' W 057°54'4 8.2 360 / 71004.6 2.0 0.5
2018-Apr-20 16:31N 48°58' W 057°57'0 0.0
2018-Apr-20 16:00N 48°58' W 057°57'4245.0
2018-Apr-20 16:00N 48°54' W 057°54'4 8.2 350 / 101005.4 1.5 0.4
2018-Apr-20 15:31N 48°58' W 057°57'0 0.0
2018-Apr-20 15:01N 48°58' W 057°57'4236.8
2018-Apr-20 15:00N 48°54' W 057°54'4 8.2 350 / 71006.5 1.4 0.5
2018-Apr-20 14:31N 48°58' W 057°57'0 0.0
2018-Apr-20 14:00N 48°58' W 057°57'4284.2
2018-Apr-20 14:00N 48°54' W 057°54'4 8.2 340 / 41007.2 0.9 0.8
2018-Apr-20 13:30N 48°58' W 057°57'0 0.0
2018-Apr-20 13:01N 48°58' W 057°57'4236.8
2018-Apr-20 13:00N 48°54' W 057°54'4 8.2 350 / 51007.6 0.5 0.3
2018-Apr-20 12:31N 48°58' W 057°57'0 0.0
2018-Apr-20 12:01N 48°58' W 057°57'4236.8
2018-Apr-20 12:00N 48°54' W 057°54'4 8.1 350 / 41008.0 0.6 0.1
2018-Apr-20 11:30N 48°58' W 057°57'0 0.0
2018-Apr-20 11:01N 48°58' W 057°57'4236.8
2018-Apr-20 11:00N 48°54' W 057°54'4 8.1 010 / 21008.0 0.4-0.2
2018-Apr-20 10:30N 48°58' W 057°57'0 0.0
2018-Apr-20 10:01N 48°58' W 057°57'4236.8
2018-Apr-20 10:00N 48°54' W 057°54'4 8.2 010 / 21008.1 0.4-0.7
2018-Apr-20 09:31N 48°58' W 057°57'0 0.0
2018-Apr-20 09:01N 48°58' W 057°57'4236.8
2018-Apr-20 09:00N 48°54' W 057°54'4 8.1 360 / 51008.2 0.4-1.0
2018-Apr-20 08:30N 48°58' W 057°57'0 0.0
2018-Apr-20 08:01N 48°58' W 057°57'4236.8
2018-Apr-20 08:00N 48°54' W 057°54'4 8.2 350 / 81009.4 0.1-1.2
2018-Apr-20 07:31N 48°58' W 057°57'0 0.0
2018-Apr-20 07:01N 48°58' W 057°57'0 0.0
2018-Apr-20 06:31N 48°58' W 057°57'0 0.0
2018-Apr-20 06:01N 48°58' W 057°57'4236.8
2018-Apr-20 06:00N 48°54' W 057°54'4 8.2 360 / 11009.5 -0.2-0.6
2018-Apr-20 05:31N 48°58' W 057°57'0 0.0
2018-Apr-20 05:01N 48°58' W 057°57'4236.8
2018-Apr-20 05:00N 48°54' W 057°54'4 8.2 340 / 61010.1 -0.3-0.7
2018-Apr-20 04:31N 48°58' W 057°57'0 0.0
2018-Apr-20 04:01N 48°58' W 057°57'4236.8
2018-Apr-20 04:00N 48°54' W 057°54'4 8.2 330 / 31010.2 -0.0-0.6
2018-Apr-20 03:31N 48°58' W 057°57'0 0.0
2018-Apr-20 03:01N 48°58' W 057°57'4236.8
2018-Apr-20 03:00N 48°54' W 057°54'4 8.2 360 / 11009.8 0.3-0.3
2018-Apr-20 02:31N 48°58' W 057°57'0 0.0
2018-Apr-20 02:01N 48°58' W 057°57'4236.8
2018-Apr-20 02:00N 48°54' W 057°54'4 8.1 340 / 11010.3 0.3-0.3
2018-Apr-20 01:30N 48°58' W 057°57'0 0.0
2018-Apr-20 01:01N 48°58' W 057°57'4236.8
2018-Apr-20 01:00N 48°54' W 057°54'4 8.2 170 / 41010.7 -0.0-0.6
2018-Apr-20 00:31N 48°58' W 057°57'0 0.0
2018-Apr-20 00:01N 48°58' W 057°57'4236.8
2018-Apr-20 00:00N 48°54' W 057°54'4 8.2 190 / 81009.9 0.2-0.0
2018-Apr-19 23:31N 48°58' W 057°57'0 0.0
2018-Apr-19 23:01N 48°58' W 057°57'4236.8
2018-Apr-19 23:00N 48°54' W 057°54'4 8.2 170 / 81009.0 0.3 0.1
2018-Apr-19 22:31N 48°58' W 057°57'0 0.0
2018-Apr-19 22:01N 48°58' W 057°57'4236.8
2018-Apr-19 22:00N 48°54' W 057°54'4 8.2 180 / 81008.4 1.0 0.7
2018-Apr-19 21:31N 48°58' W 057°57'0 0.0
2018-Apr-19 21:01N 48°58' W 057°57'4236.8
2018-Apr-19 21:00N 48°54' W 057°54'4 8.2 210 / 51007.5 1.8 0.7
2018-Apr-19 20:31N 48°58' W 057°57'0 0.0
2018-Apr-19 20:01N 48°58' W 057°57'4236.8
2018-Apr-19 20:00N 48°54' W 057°54'4 8.2 210 / 71006.7 2.1 0.9
2018-Apr-19 19:31N 48°58' W 057°57'0 0.0
2018-Apr-19 19:01N 48°58' W 057°57'4236.8
2018-Apr-19 19:00N 48°54' W 057°54'4 8.2 170 / 111005.0 2.6 0.6
2018-Apr-19 18:31N 48°58' W 057°57'0 0.0
2018-Apr-19 18:01N 48°58' W 057°57'4229.2
2018-Apr-19 18:00N 48°54' W 057°54'4 8.2 200 / 91004.0 2.9 0.2
2018-Apr-19 17:31N 48°58' W 057°57'0 0.0
2018-Apr-19 17:01N 48°58' W 057°57'4236.8
2018-Apr-19 17:00N 48°54' W 057°54'4 8.1 200 / 71003.3 3.3 1.2
2018-Apr-19 16:30N 48°58' W 057°57'0 0.0
2018-Apr-19 16:00N 48°58' W 057°57'4284.2
2018-Apr-19 16:00N 48°54' W 057°54'4 8.1 170 / 61002.6 3.5 1.3
2018-Apr-19 15:30N 48°58' W 057°57'0 0.0
2018-Apr-19 15:01N 48°58' W 057°57'4236.8
2018-Apr-19 15:00N 48°54' W 057°54'4 8.2 200 / 61001.9 2.8 1.0
2018-Apr-19 14:31N 48°58' W 057°57'0 0.0
2018-Apr-19 14:00N 48°58' W 057°57'4245.0
2018-Apr-19 14:00N 48°54' W 057°54'4 8.2 210 / 31001.2 3.4 0.8
2018-Apr-19 13:31N 48°58' W 057°57'0 0.0
2018-Apr-19 13:01N 48°58' W 057°57'4236.8
2018-Apr-19 13:00N 48°54' W 057°54'4 8.2 130 / 71000.5 3.5 0.8
2018-Apr-19 12:31N 48°58' W 057°57'0 0.0
2018-Apr-19 12:01N 48°58' W 057°57'4236.8
2018-Apr-19 12:00N 48°54' W 057°54'4 8.2 150 / 81000.0 2.8 1.2
2018-Apr-19 11:31N 48°58' W 057°57'0 0.0
2018-Apr-19 11:00N 48°58' W 057°57'4253.8
2018-Apr-19 11:00N 48°54' W 057°54'4 8.1 130 / 4999.6 3.2 1.1
2018-Apr-19 10:30N 48°58' W 057°57'0 0.0
2018-Apr-19 10:00N 48°58' W 057°57'4245.0
2018-Apr-19 10:00N 48°54' W 057°54'4 8.1 160 / 2999.1 2.3 1.4
2018-Apr-19 09:30N 48°58' W 057°57'0 0.0
2018-Apr-19 09:01N 48°58' W 057°57'4236.8
2018-Apr-19 09:00N 48°54' W 057°54'4 8.2 170 / 4998.6 2.2 1.3
2018-Apr-19 08:31N 48°58' W 057°57'0 0.0
2018-Apr-19 08:01N 48°58' W 057°57'4236.8
2018-Apr-19 08:00N 48°54' W 057°54'4 8.2 190 / 3998.2 2.6 1.7
2018-Apr-19 07:31N 48°58' W 057°57'0 0.0
2018-Apr-19 07:01N 48°58' W 057°57'4236.8
2018-Apr-19 07:00N 48°54' W 057°54'4 8.2 190 / 4997.7 2.5 2.2
2018-Apr-19 06:31N 48°58' W 057°57'0 0.0
2018-Apr-19 06:00N 48°58' W 057°57'4263.2
2018-Apr-19 06:00N 48°54' W 057°54'4 8.2 997.4 2.0 1.9
2018-Apr-19 05:31N 48°58' W 057°57'0 0.0
2018-Apr-19 05:01N 48°58' W 057°57'4236.8
2018-Apr-19 05:00N 48°54' W 057°54'4 8.2 997.4 2.6 2.5
2018-Apr-19 04:31N 48°58' W 057°57'0 0.0
2018-Apr-19 04:01N 48°58' W 057°57'4236.8
2018-Apr-19 04:00N 48°54' W 057°54'4 8.2 330 / 3997.7 1.8 1.7
2018-Apr-19 03:31N 48°58' W 057°57'0 0.0
2018-Apr-19 03:01N 48°58' W 057°57'4236.8
2018-Apr-19 03:00N 48°54' W 057°54'4 8.1 350 / 2997.7 2.0 1.8
2018-Apr-19 02:30N 48°58' W 057°57'0 0.0
2018-Apr-19 02:01N 48°58' W 057°57'4236.8
2018-Apr-19 02:00N 48°54' W 057°54'4 8.2 998.0 2.1 1.9
2018-Apr-19 01:31N 48°58' W 057°57'0 0.0
2018-Apr-19 01:01N 48°58' W 057°57'4236.8
2018-Apr-19 01:00N 48°54' W 057°54'4 8.2 330 / 1998.3 2.1 1.9
2018-Apr-19 00:31N 48°58' W 057°57'0 0.0
2018-Apr-19 00:01N 48°58' W 057°57'0 0.0
2018-Apr-18 23:31N 48°58' W 057°57'0 0.0
2018-Apr-18 23:01N 48°58' W 057°57'4236.8
2018-Apr-18 23:00N 48°54' W 057°54'4 8.2 030 / 1997.9 2.9 2.7
2018-Apr-18 22:31N 48°58' W 057°57'0 0.0
2018-Apr-18 22:01N 48°58' W 057°57'4236.8
2018-Apr-18 22:00N 48°54' W 057°54'4 8.2 340 / 4997.4 3.1 2.9
2018-Apr-18 21:31N 48°58' W 057°57'0 0.0
2018-Apr-18 21:01N 48°58' W 057°57'4229.2
2018-Apr-18 21:00N 48°54' W 057°54'4 8.2 360 / 5997.6 3.6 3.0
2018-Apr-18 20:31N 48°58' W 057°57'0 0.0
2018-Apr-18 20:01N 48°58' W 057°57'4236.8
2018-Apr-18 20:00N 48°54' W 057°54'613.1 360 / 5997.5 4.3 3.0
2018-Apr-18 19:31N 48°59' W 058°01'510.7
2018-Apr-18 19:01N 49°02' W 058°07'2110.1
2018-Apr-18 19:00N 49°00' W 058°06'814.3 100 / 17997.6 3.7 2.6
2018-Apr-18 18:25N 49°08' W 058°10'511.5
2018-Apr-18 18:00N 49°12' W 058°11'135.7
2018-Apr-18 18:00N 49°12' W 058°12'710.2 060 / 21997.7 3.4 2.1
2018-Apr-18 17:16N 49°17' W 058°20'2 6.0
2018-Apr-18 17:00N 49°18' W 058°18'3301.3 080 / 21997.7 4.5 2.6
2018-Apr-18 16:59N 49°21' W 058°21'1515.3
2018-Apr-18 16:00N 49°36' W 058°18'2110.7 080 / 27998.0 3.1 1.9
2018-Apr-18 14:00N 49°54' W 058°00'2019.6 080 / 241000.8 3.1 0.8
2018-Apr-18 13:00N 50°12' W 057°48'2512.6 070 / 261001.6 1.6 0.7
2018-Apr-18 11:00N 50°36' W 057°36'1414.2 030 / 161005.4 -0.0-1.1
2018-Apr-18 10:00N 50°48' W 057°24'7 7.1 030 / 171007.9 0.1-0.7
2018-Apr-18 09:00N 50°54' W 057°18'1312.6 030 / 181009.0 -1.8-2.2
2018-Apr-18 08:00N 51°06' W 057°12'4 3.8 020 / 281009.1 -2.5-3.5
2018-Apr-18 07:00N 51°06' W 057°06'6 6.0 020 / 261012.1 -2.3-4.6
2018-Apr-18 06:00N 51°12' W 057°06'0 0.0 020 / 271013.5 -2.4-4.9
2018-Apr-18 05:00N 51°12' W 057°06'0 0.0 030 / 251014.8 -2.2-4.4
2018-Apr-18 04:00N 51°12' W 057°06'6 6.0 040 / 281015.7 -2.1-4.7
2018-Apr-18 03:00N 51°06' W 057°06'4 3.8 040 / 221016.8 -1.3-5.1
2018-Apr-18 02:00N 51°06' W 057°12'6 6.0 030 / 221016.9 -1.2-4.9
2018-Apr-18 01:00N 51°00' W 057°12'7 7.1 050 / 241018.3 -1.1-5.1
2018-Apr-18 00:00N 50°54' W 057°18'4 3.8 020 / 181018.4 -0.0-3.2
2018-Apr-17 23:00N 50°54' W 057°24'7 7.1 010 / 131019.0 0.4-2.1
2018-Apr-17 22:00N 50°48' W 057°30'6 6.0 350 / 151019.0 -0.2-3.7
2018-Apr-17 21:00N 50°42' W 057°30'1312.9 350 / 101019.2 0.3-4.3
2018-Apr-17 20:00N 50°36' W 057°12'0 0.0 050 / 81020.2 5.4-8.1
2018-Apr-17 19:00N 50°36' W 057°12'0 0.0 350 / 171020.6 4.7-9.7
2018-Apr-17 18:00N 50°36' W 057°12'0 0.0 340 / 101021.5 4.6-9.5
2018-Apr-17 17:00N 50°36' W 057°12'0 0.0 290 / 111021.8 2.8-7.1
2018-Apr-17 16:00N 50°36' W 057°12'0 0.0 210 / 31022.5 5.6-3.8
2018-Apr-17 15:00N 50°36' W 057°12'0 0.0 310 / 21023.9 2.0-4.6
2018-Apr-17 14:00N 50°36' W 057°12'0 0.0 220 / 21024.4 2.1-4.3
2018-Apr-17 13:00N 50°36' W 057°12'0 0.0 330 / 71024.9 0.4-3.2
2018-Apr-17 12:00N 50°36' W 057°12'4 3.8 340 / 81025.4 -1.3-3.9
2018-Apr-17 11:00N 50°36' W 057°18'8 7.6 040 / 101024.8 -4.6-5.8
2018-Apr-17 10:00N 50°36' W 057°30'4 3.8 350 / 61024.5 -0.8-1.5
2018-Apr-17 09:00N 50°36' W 057°36'6 6.0 300 / 61024.7 -0.8-3.1
2018-Apr-17 08:00N 50°30' W 057°36'7 7.1 190 / 111024.9 -1.1-1.3
2018-Apr-17 07:00N 50°24' W 057°42'7 7.1 190 / 141025.1 -1.3-1.9
2018-Apr-17 06:00N 50°18' W 057°48'7 3.6 180 / 171025.2 -1.3-2.7
2018-Apr-17 04:00N 50°12' W 057°54'6 6.0 180 / 191026.0 -1.5-3.2
2018-Apr-17 03:00N 50°06' W 057°54'0 0.0 170 / 181026.3 -1.8-3.5
2018-Apr-17 02:00N 50°06' W 057°54'1312.6 180 / 181027.0 -1.7-4.0
2018-Apr-17 01:00N 49°54' W 058°00'7 7.1 190 / 191027.6 -1.9-4.8
2018-Apr-17 00:00N 49°48' W 058°06'7 7.1 180 / 161028.3 -2.0-5.8
2018-Apr-16 23:00N 49°42' W 058°12'1312.6 210 / 161029.3 -2.1-6.8
2018-Apr-16 22:00N 49°30' W 058°18'1312.6 210 / 161029.9 -1.5-7.6
2018-Apr-16 21:00N 49°18' W 058°24'116.0 200 / 141030.2 -1.3-8.6
2018-Apr-16 20:56N 49°18' W 058°23'614.0
2018-Apr-16 20:30N 49°15' W 058°15'4 9.0
2018-Apr-16 20:00N 49°10' W 058°15'3224.1
2018-Apr-16 20:00N 49°12' W 058°18'910.4 260 / 91030.5 -1.8-8.3
2018-Apr-16 19:05N 49°05' W 058°09'112.9
2018-Apr-16 19:01N 49°04' W 058°09'3181.2
2018-Apr-16 19:00N 49°06' W 058°06'715.4 270 / 191030.4 -1.3-8.4
2018-Apr-16 18:31N 48°59' W 058°03'4 8.3
2018-Apr-16 18:01N 48°58' W 057°57'4236.8
2018-Apr-16 18:00N 48°54' W 057°54'4 8.2 200 / 121031.0 -0.0-9.5
2018-Apr-16 17:30N 48°58' W 057°57'0 0.0
2018-Apr-16 17:01N 48°58' W 057°57'0 0.0
2018-Apr-16 16:30N 48°58' W 057°57'0 0.0
2018-Apr-16 16:00N 48°58' W 057°57'4268.1
2018-Apr-16 16:00N 48°54' W 057°54'4 7.4 190 / 141031.0 -1.3-9.2
2018-Apr-16 15:27N 48°58' W 057°57'0 0.0
2018-Apr-16 15:00N 48°58' W 057°57'4273.3
2018-Apr-16 15:00N 48°54' W 057°54'4 8.1 190 / 111032.1 -1.2-7.7
2018-Apr-16 14:30N 48°58' W 057°57'0 0.0
2018-Apr-16 14:00N 48°58' W 057°57'4273.3
2018-Apr-16 14:00N 48°54' W 057°54'4 7.4 200 / 141032.6 -1.7-8.6
2018-Apr-16 13:27N 48°58' W 057°57'0 0.0
2018-Apr-16 13:00N 48°58' W 057°57'4268.1
2018-Apr-16 13:00N 48°54' W 057°54'4 7.9 200 / 141032.6 -1.1-9.1
2018-Apr-16 12:30N 48°58' W 057°57'0 0.0
2018-Apr-16 12:01N 48°58' W 057°57'4236.8
2018-Apr-16 12:00N 48°54' W 057°54'4 8.2 220 / 131033.0 -0.8-8.9
2018-Apr-16 11:31N 48°58' W 057°57'0 0.0
2018-Apr-16 11:01N 48°58' W 057°57'4236.8
2018-Apr-16 11:00N 48°54' W 057°54'   320 / 11033.2 -2.9-6.8
Track history (hours):
 
Tides and Currents Weather Stations Pressure Air Temp Water Temp Dewpoint Dewpoint Depression Visibility Wind Speed Wind Dir Waves Ship Positions

CCGS Henry Larsen (Canada)

Medium Gulf/River Icebreaker

Last reported at 2018-Apr-26 11:00 UTC. Time now 2018-Apr-26 11:45 UTC.
Position N 51°42' W 055°30'.

Length 100.03 m; beam 19.82 m; draft 7.2 m.

Type: SAR. MMSI: 316013000.

Wind from 130 at 3 knots

Barometer 1021.6 mb
Air temperature 2.3 ° C
Dewpoint 1.5 ° C

Date/timePositionNaut miles runAvg speedWind from/ knotsBaromVisibWave heightAir tempDewpointWater temp
2018-Apr-26 11:00N 51°42' W 055°30'0 0.0 130 / 31021.6 2.3 1.5
2018-Apr-26 10:00N 51°42' W 055°30'0 0.0 130 / 51021.2 1.1 0.9
2018-Apr-26 09:00N 51°42' W 055°30'0 0.0 190 / 31020.4 0.4 0.3
2018-Apr-26 08:00N 51°42' W 055°30'6 2.0 180 / 61019.9 0.2-0.0
2018-Apr-26 05:00N 51°48' W 055°30'7 3.5 210 / 101019.5 0.8 0.5
2018-Apr-26 03:00N 51°42' W 055°24'6 6.0 220 / 141018.9 1.3 0.8
2018-Apr-26 02:00N 51°48' W 055°24'0 0.0 220 / 221018.2 1.1 0.8
2018-Apr-26 01:00N 51°48' W 055°24'4 3.7 210 / 221018.2 0.7 0.5
2018-Apr-26 00:00N 51°48' W 055°30'0 0.0 210 / 171018.0 1.1 0.8
2018-Apr-25 23:00N 51°48' W 055°30'0 0.0 200 / 141017.7 1.4 0.9
2018-Apr-25 22:00N 51°48' W 055°30'0 0.0 200 / 111017.2 2.4 1.1
2018-Apr-25 21:00N 51°48' W 055°30'0 0.0 200 / 161016.6 2.0 0.8
2018-Apr-25 20:00N 51°48' W 055°30'10 9.5 200 / 161016.3 2.7 0.9
2018-Apr-25 19:00N 51°42' W 055°42'1111.2 240 / 131016.6 4.1 1.4
2018-Apr-25 18:00N 51°42' W 056°00'1616.1 240 / 221016.8 1.5 0.5
2018-Apr-25 17:00N 51°36' W 056°24'1312.7 180 / 211016.1 0.9 0.7
2018-Apr-25 16:00N 51°42' W 056°06'10 9.6 180 / 291015.9 0.8 0.4
2018-Apr-25 15:00N 51°36' W 056°18'1919.2 240 / 221017.1 1.0 0.2
2018-Apr-25 14:00N 51°24' W 056°42'7 7.1 200 / 121017.7 1.5 0.9
2018-Apr-25 13:00N 51°18' W 056°48'0 0.0 210 / 71018.0 1.3 0.8
2018-Apr-25 12:00N 51°18' W 056°48'6 6.0 210 / 131017.8 1.0 0.3
2018-Apr-25 11:00N 51°12' W 056°48'0 0.0 180 / 101017.0 2.5-0.0
2018-Apr-25 10:00N 51°12' W 056°48'0 0.0 160 / 121016.5 2.0-0.3
2018-Apr-25 09:00N 51°12' W 056°48'0 0.0 160 / 81016.3 1.3-0.2
2018-Apr-25 08:00N 51°12' W 056°48'0 0.0 160 / 111015.9 0.9-0.3
2018-Apr-25 07:00N 51°12' W 056°48'0 0.0 170 / 131015.7 1.1-0.1
2018-Apr-25 06:00N 51°12' W 056°48'0 0.0 180 / 141015.8 0.7-0.0
2018-Apr-25 05:00N 51°12' W 056°48'0 0.0 200 / 121015.7 0.8-0.1
2018-Apr-25 04:00N 51°12' W 056°48'0 0.0 190 / 151015.3 1.0-0.2
2018-Apr-25 03:00N 51°12' W 056°48'0 0.0 180 / 141015.1 1.4-0.5
2018-Apr-25 02:00N 51°12' W 056°48'0 0.0 200 / 141015.0 1.7-0.7
2018-Apr-25 01:00N 51°12' W 056°48'0 0.0 190 / 131014.5 1.7-0.8
2018-Apr-25 00:00N 51°12' W 056°48'0 0.0 170 / 181013.5 1.9-0.9
2018-Apr-24 23:00N 51°12' W 056°48'0 0.0 170 / 231012.7 2.1-1.0
2018-Apr-24 22:00N 51°12' W 056°48'20 9.9 170 / 201012.9 2.1-0.5
2018-Apr-24 20:00N 51°06' W 057°18'1616.2 150 / 341011.8 1.6 0.6
2018-Apr-24 19:00N 51°12' W 056°54'4 3.8 160 / 381011.2 2.7-0.7
2018-Apr-24 18:00N 51°12' W 056°48'0 0.0 170 / 201012.9 4.8-1.9
2018-Apr-24 17:00N 51°12' W 056°48'0 0.0 200 / 111014.6 4.8-1.4
2018-Apr-24 16:00N 51°12' W 056°48'1312.8 190 / 241016.0 3.5-1.1
2018-Apr-24 15:00N 51°06' W 057°06'10 9.6 220 / 171016.5 2.1-0.6
2018-Apr-24 14:00N 51°12' W 056°54'4 3.8 160 / 361016.1 2.8-1.5
2018-Apr-24 13:00N 51°12' W 056°48'0 0.0 180 / 131017.1 5.1-1.9
2018-Apr-24 12:00N 51°12' W 056°48'0 0.0 230 / 71017.2 3.9-1.4
2018-Apr-24 11:00N 51°12' W 056°48'0 0.0 160 / 171017.6 2.0-1.4
2018-Apr-24 10:00N 51°12' W 056°48'0 0.0 160 / 171017.8 1.2-1.3
2018-Apr-24 08:00N 51°12' W 056°48'0 0.0 170 / 181018.1 0.6-0.9
2018-Apr-24 07:00N 51°12' W 056°48'0 0.0 170 / 171018.2 0.5-1.0
2018-Apr-24 06:00N 51°12' W 056°48'0 0.0 170 / 151018.6 0.5-1.2
2018-Apr-24 05:00N 51°12' W 056°48'0 0.0 160 / 131018.7 0.4-1.5
2018-Apr-24 04:00N 51°12' W 056°48'0 0.0 160 / 141018.8 0.6-1.3
2018-Apr-24 03:00N 51°12' W 056°48'0 0.0 170 / 171018.7 0.6-1.1
2018-Apr-24 02:00N 51°12' W 056°48'0 0.0 170 / 151018.4 0.8-1.3
2018-Apr-24 01:00N 51°12' W 056°48'0 0.0 170 / 181018.0 0.8-1.3
2018-Apr-24 00:00N 51°12' W 056°48'0 0.0 170 / 181017.6 0.9-1.5
2018-Apr-23 23:00N 51°12' W 056°48'0 0.0 160 / 211017.2 1.2-2.1
2018-Apr-23 22:00N 51°12' W 056°48'0 0.0 160 / 181017.4 1.5-1.5
2018-Apr-23 21:00N 51°12' W 056°48'0 0.0 160 / 161017.4 1.9-2.2
2018-Apr-23 19:00N 51°12' W 056°48'0 0.0 170 / 181017.5 3.4-5.1
2018-Apr-23 18:00N 51°12' W 056°48'4 3.8 210 / 71018.3 3.1-3.1
2018-Apr-23 17:00N 51°12' W 056°54'1919.3 230 / 141019.0 1.6-1.6
2018-Apr-23 16:00N 51°00' W 057°18'1312.6 230 / 171019.8 0.4-2.8
2018-Apr-23 15:00N 50°48' W 057°24'1414.2 220 / 171020.5 0.5-2.5
2018-Apr-23 14:00N 50°36' W 057°36'1312.6 230 / 151020.8 0.4-3.2
2018-Apr-23 13:00N 50°24' W 057°42'7 7.1 190 / 121021.0 0.1-2.8
2018-Apr-23 12:00N 50°18' W 057°48'6 6.0 180 / 131020.7 0.4-1.3
2018-Apr-23 11:00N 50°12' W 057°48'4 3.8 190 / 101020.4 1.3-1.9
2018-Apr-23 10:00N 50°12' W 057°54'6 6.0 200 / 101019.8 1.1-3.4
2018-Apr-23 09:00N 50°06' W 057°54'0 0.0 180 / 151019.2 -0.3-0.5
2018-Apr-23 08:00N 50°06' W 057°54'1312.6 170 / 181019.0 -0.5-0.7
2018-Apr-23 07:00N 49°54' W 058°00'4 3.9 180 / 181019.3 -0.4-0.7
2018-Apr-23 06:00N 49°54' W 058°06'6 6.0 170 / 171018.9 -0.3-1.2
2018-Apr-23 05:00N 49°48' W 058°06'7 7.1 180 / 131018.9 0.6-1.1
2018-Apr-23 04:00N 49°42' W 058°12'7 7.1 180 / 191019.2 -0.4-1.7
2018-Apr-23 03:00N 49°36' W 058°18'12 6.0 180 / 161019.7 -0.6-2.2
2018-Apr-23 01:00N 49°24' W 058°18'6 6.0 170 / 141019.9 -0.8-3.2
2018-Apr-23 00:00N 49°18' W 058°18'336.4 190 / 151019.6 -0.6-4.3
2018-Apr-22 23:55N 49°15' W 058°17'1212.5
2018-Apr-22 23:00N 49°06' W 058°06'10 9.9 200 / 101019.1 -0.6-4.0
2018-Apr-22 22:00N 49°12' W 057°54'0 0.0 240 / 71018.4 0.7-5.1
2018-Apr-22 21:00N 49°12' W 057°54'0 0.0 150 / 81018.3 2.1-4.5
2018-Apr-22 20:00N 49°12' W 057°54'0 0.0 210 / 71017.9 1.6-5.2
2018-Apr-22 19:00N 49°12' W 057°54'0 0.0 260 / 31017.3 1.7-4.8
2018-Apr-22 18:00N 49°12' W 057°54'10 9.9 220 / 91017.1 1.9-4.1
2018-Apr-22 17:00N 49°06' W 058°06'527.6 290 / 131017.3 0.7-3.3
2018-Apr-22 16:48N 49°10' W 058°12'1 3.2
2018-Apr-22 16:21N 49°10' W 058°14'2 5.8
2018-Apr-22 16:00N 49°12' W 058°12'2726.8 240 / 91016.9 -0.1-3.8
2018-Apr-22 15:59N 49°10' W 058°14'0 0.9
2018-Apr-22 15:30N 49°10' W 058°15'3 5.6
2018-Apr-22 15:00N 49°09' W 058°11'3860.7
2018-Apr-22 15:00N 49°12' W 058°12'1020.3 260 / 181016.2 0.2-3.3
2018-Apr-22 14:31N 49°03' W 058°08'5 9.0
2018-Apr-22 14:00N 48°59' W 058°04'3 5.8
2018-Apr-22 13:31N 48°58' W 057°59'2 3.9
2018-Apr-22 13:01N 48°58' W 057°57'4229.2
2018-Apr-22 13:00N 48°54' W 057°54'4 8.2 200 / 91016.1 0.9-2.8
2018-Apr-22 12:31N 48°58' W 057°57'0 0.0
2018-Apr-22 12:00N 48°58' W 057°57'4240.9
2018-Apr-22 12:00N 48°54' W 057°54'4 8.2 200 / 91015.8 0.7-2.8
2018-Apr-22 11:31N 48°58' W 057°57'0 0.0
2018-Apr-22 11:00N 48°58' W 057°57'4245.0
2018-Apr-22 11:00N 48°54' W 057°54'4 8.2 200 / 81015.6 0.5-2.5
2018-Apr-22 10:31N 48°58' W 057°57'0 0.0
2018-Apr-22 10:01N 48°58' W 057°57'4229.2
2018-Apr-22 10:00N 48°54' W 057°54'4 8.2 200 / 51015.3 0.5-1.6
2018-Apr-22 09:31N 48°58' W 057°57'0 0.0
2018-Apr-22 09:00N 48°58' W 057°57'4273.3
2018-Apr-22 09:00N 48°54' W 057°54'4 8.2 190 / 51014.6 -0.5-2.0
2018-Apr-22 08:31N 48°58' W 057°57'0 0.0
2018-Apr-22 08:01N 48°58' W 057°57'4236.8
2018-Apr-22 08:00N 48°54' W 057°54'4 8.2 190 / 51014.2 -0.3-1.9
2018-Apr-22 07:31N 48°58' W 057°57'0 0.0
2018-Apr-22 07:01N 48°58' W 057°57'4236.8
2018-Apr-22 07:00N 48°54' W 057°54'4 8.2 200 / 91013.9 -0.1-1.7
2018-Apr-22 06:31N 48°58' W 057°57'0 0.0
2018-Apr-22 06:00N 48°58' W 057°57'4296.0
2018-Apr-22 06:00N 48°54' W 057°54'4 8.1 180 / 101013.3 -0.1-1.0
2018-Apr-22 05:30N 48°58' W 057°57'0 0.0
2018-Apr-22 05:01N 48°58' W 057°57'4236.8
2018-Apr-22 05:00N 48°54' W 057°54'4 8.2 190 / 111013.0 0.2-0.4
2018-Apr-22 04:31N 48°58' W 057°57'0 0.0
2018-Apr-22 04:01N 48°58' W 057°57'4236.8
2018-Apr-22 04:00N 48°54' W 057°54'4 8.2 200 / 71013.0 0.9-0.0
2018-Apr-22 03:31N 48°58' W 057°57'0 0.0
2018-Apr-22 03:01N 48°58' W 057°57'4236.8
2018-Apr-22 03:00N 48°54' W 057°54'4 8.2 1013.0 1.7 0.2
2018-Apr-22 02:31N 48°58' W 057°57'0 0.0
2018-Apr-22 02:01N 48°58' W 057°57'0 0.0
2018-Apr-22 01:31N 48°58' W 057°57'0 0.0
2018-Apr-22 01:01N 48°58' W 057°57'4236.8
2018-Apr-22 01:00N 48°54' W 057°54'4 8.2 210 / 71012.5 1.4 0.5
2018-Apr-22 00:31N 48°58' W 057°57'0 0.0
2018-Apr-22 00:01N 48°58' W 057°57'4236.8
2018-Apr-22 00:00N 48°54' W 057°54'4 8.2 190 / 101012.2 1.0 0.6
2018-Apr-21 23:31N 48°58' W 057°57'0 0.0
2018-Apr-21 23:01N 48°58' W 057°57'4236.8
2018-Apr-21 23:00N 48°54' W 057°54'4 8.2 170 / 91011.3 0.9 0.3
2018-Apr-21 22:31N 48°58' W 057°57'0 0.0
2018-Apr-21 22:01N 48°58' W 057°57'4236.8
2018-Apr-21 22:00N 48°54' W 057°54'4 8.2 190 / 71010.5 0.6 0.3
2018-Apr-21 21:31N 48°58' W 057°57'0 0.0
2018-Apr-21 21:00N 48°58' W 057°57'4355.3
2018-Apr-21 21:00N 48°54' W 057°54'4 8.2 210 / 141009.7 0.6 0.4
2018-Apr-21 20:30N 48°58' W 057°57'0 0.0
2018-Apr-21 20:01N 48°58' W 057°57'4236.8
2018-Apr-21 20:00N 48°54' W 057°54'4 8.2 210 / 151009.0 0.6 0.1
2018-Apr-21 19:31N 48°58' W 057°57'0 0.0
2018-Apr-21 19:01N 48°58' W 057°57'4236.8
2018-Apr-21 19:00N 48°54' W 057°54'4 8.2 210 / 161008.6 0.3-0.1
2018-Apr-21 18:31N 48°58' W 057°57'0 0.0
2018-Apr-21 18:01N 48°58' W 057°57'4236.8
2018-Apr-21 18:00N 48°54' W 057°54'4 8.2 210 / 151008.0 0.1-0.4
2018-Apr-21 17:31N 48°58' W 057°57'0 0.0
2018-Apr-21 17:01N 48°58' W 057°57'4236.8
2018-Apr-21 17:00N 48°54' W 057°54'4 8.2 210 / 131007.8 -0.0-0.5
2018-Apr-21 16:31N 48°58' W 057°57'0 0.0
2018-Apr-21 16:01N 48°58' W 057°57'4236.8
2018-Apr-21 16:00N 48°54' W 057°54'4 8.2 200 / 121007.5 -0.5-0.7
2018-Apr-21 15:31N 48°58' W 057°57'0 0.0
2018-Apr-21 15:01N 48°58' W 057°57'4236.8
2018-Apr-21 15:00N 48°54' W 057°54'4 8.2 200 / 121007.3 -0.6-0.8
2018-Apr-21 14:31N 48°58' W 057°57'0 0.0
2018-Apr-21 14:01N 48°58' W 057°57'4236.8
2018-Apr-21 14:00N 48°54' W 057°54'4 8.2 200 / 121006.9 -0.8-1.0
2018-Apr-21 13:31N 48°58' W 057°57'0 0.0
2018-Apr-21 13:01N 48°58' W 057°57'4236.8
2018-Apr-21 13:00N 48°54' W 057°54'4 8.1 200 / 131006.5 -0.7-0.9
2018-Apr-21 12:30N 48°58' W 057°57'0 0.0
2018-Apr-21 12:01N 48°58' W 057°57'4236.8
2018-Apr-21 12:00N 48°54' W 057°54'4 8.2 190 / 131006.0 -1.1-1.3
2018-Apr-21 11:31N 48°58' W 057°57'0 0.0
2018-Apr-21 11:01N 48°58' W 057°57'4236.8
2018-Apr-21 11:00N 48°54' W 057°54'4 8.2 190 / 131005.6 -1.2-1.4
2018-Apr-21 10:31N 48°58' W 057°57'0 0.0
2018-Apr-21 10:01N 48°58' W 057°57'4236.8
2018-Apr-21 10:00N 48°54' W 057°54'4 8.2 190 / 131004.9 -1.3-1.5
2018-Apr-21 09:31N 48°58' W 057°57'0 0.0
2018-Apr-21 09:01N 48°58' W 057°57'4236.8
2018-Apr-21 09:00N 48°54' W 057°54'4 8.2 190 / 141004.5 -1.3-1.5
2018-Apr-21 08:31N 48°58' W 057°57'0 0.0
2018-Apr-21 08:00N 48°58' W 057°57'4245.0
2018-Apr-21 08:00N 48°54' W 057°54'4 8.2 190 / 161003.6 -1.2-1.3
2018-Apr-21 07:31N 48°58' W 057°57'0 0.0
2018-Apr-21 07:01N 48°58' W 057°57'4236.8
2018-Apr-21 07:00N 48°54' W 057°54'4 8.2 200 / 161003.2 -1.0-1.1
2018-Apr-21 06:31N 48°58' W 057°57'0 0.0
2018-Apr-21 06:00N 48°58' W 057°57'4273.3
2018-Apr-21 06:00N 48°54' W 057°54'4 8.2 200 / 161002.6 -0.8-1.0
2018-Apr-21 05:31N 48°58' W 057°57'0 0.0
2018-Apr-21 05:01N 48°58' W 057°57'4229.2
2018-Apr-21 05:00N 48°54' W 057°54'4 8.2 200 / 151002.1 -0.6-0.8
2018-Apr-21 04:31N 48°58' W 057°57'0 0.0
2018-Apr-21 04:01N 48°58' W 057°57'4236.8
2018-Apr-21 04:00N 48°54' W 057°54'4 8.2 190 / 141002.2 -0.4-0.6
2018-Apr-21 03:31N 48°58' W 057°57'0 0.0
2018-Apr-21 03:01N 48°58' W 057°57'4236.8
2018-Apr-21 03:00N 48°54' W 057°54'4 8.2 190 / 151002.1 -0.3-0.5
2018-Apr-21 02:31N 48°58' W 057°57'0 0.0
2018-Apr-21 02:01N 48°58' W 057°57'4236.8
2018-Apr-21 02:00N 48°54' W 057°54'4 8.2 190 / 121002.2 -0.4-0.5
2018-Apr-21 01:31N 48°58' W 057°57'0 0.0
2018-Apr-21 01:01N 48°58' W 057°57'4236.8
2018-Apr-21 01:00N 48°54' W 057°54'4 8.2 190 / 131002.3 -0.3-0.4
2018-Apr-21 00:31N 48°58' W 057°57'0 0.0
2018-Apr-21 00:01N 48°58' W 057°57'4236.8
2018-Apr-21 00:00N 48°54' W 057°54'4 8.2 200 / 111002.6 -0.3-0.4
2018-Apr-20 23:31N 48°58' W 057°57'0 0.0
2018-Apr-20 23:00N 48°58' W 057°57'4273.3
2018-Apr-20 23:00N 48°54' W 057°54'4 8.0 190 / 31002.8 -0.3-0.4
2018-Apr-20 22:30N 48°58' W 057°57'0 0.0
2018-Apr-20 22:01N 48°58' W 057°57'4229.2
2018-Apr-20 22:00N 48°54' W 057°54'4 8.2 230 / 21002.8 -0.2-0.3
2018-Apr-20 21:31N 48°58' W 057°57'0 0.0
2018-Apr-20 21:01N 48°58' W 057°57'4236.8
2018-Apr-20 21:00N 48°54' W 057°54'4 8.2 240 / 11002.9 0.1-0.1
2018-Apr-20 20:31N 48°58' W 057°57'0 0.0
2018-Apr-20 20:01N 48°58' W 057°57'4236.8
2018-Apr-20 20:00N 48°54' W 057°54'4 8.2 330 / 101002.5 0.9 0.7
2018-Apr-20 19:31N 48°58' W 057°57'0 0.0
2018-Apr-20 19:01N 48°58' W 057°57'0 0.0
2018-Apr-20 18:31N 48°58' W 057°57'0 0.0
2018-Apr-20 18:00N 48°58' W 057°57'4253.8
2018-Apr-20 18:00N 48°54' W 057°54'4 8.2 340 / 121003.4 2.0 0.4
2018-Apr-20 17:31N 48°58' W 057°57'0 0.0
2018-Apr-20 17:00N 48°58' W 057°57'4273.3
2018-Apr-20 17:00N 48°54' W 057°54'4 8.2 360 / 71004.6 2.0 0.5
2018-Apr-20 16:31N 48°58' W 057°57'0 0.0
2018-Apr-20 16:00N 48°58' W 057°57'4245.0
2018-Apr-20 16:00N 48°54' W 057°54'4 8.2 350 / 101005.4 1.5 0.4
2018-Apr-20 15:31N 48°58' W 057°57'0 0.0
2018-Apr-20 15:01N 48°58' W 057°57'4236.8
2018-Apr-20 15:00N 48°54' W 057°54'4 8.2 350 / 71006.5 1.4 0.5
2018-Apr-20 14:31N 48°58' W 057°57'0 0.0
2018-Apr-20 14:00N 48°58' W 057°57'4284.2
2018-Apr-20 14:00N 48°54' W 057°54'4 8.2 340 / 41007.2 0.9 0.8
2018-Apr-20 13:30N 48°58' W 057°57'0 0.0
2018-Apr-20 13:01N 48°58' W 057°57'4236.8
2018-Apr-20 13:00N 48°54' W 057°54'4 8.2 350 / 51007.6 0.5 0.3
2018-Apr-20 12:31N 48°58' W 057°57'0 0.0
2018-Apr-20 12:01N 48°58' W 057°57'4236.8
2018-Apr-20 12:00N 48°54' W 057°54'4 8.1 350 / 41008.0 0.6 0.1
2018-Apr-20 11:30N 48°58' W 057°57'0 0.0
2018-Apr-20 11:01N 48°58' W 057°57'4236.8
2018-Apr-20 11:00N 48°54' W 057°54'4 8.1 010 / 21008.0 0.4-0.2
2018-Apr-20 10:30N 48°58' W 057°57'0 0.0
2018-Apr-20 10:01N 48°58' W 057°57'4236.8
2018-Apr-20 10:00N 48°54' W 057°54'4 8.2 010 / 21008.1 0.4-0.7
2018-Apr-20 09:31N 48°58' W 057°57'0 0.0
2018-Apr-20 09:01N 48°58' W 057°57'4236.8
2018-Apr-20 09:00N 48°54' W 057°54'4 8.1 360 / 51008.2 0.4-1.0
2018-Apr-20 08:30N 48°58' W 057°57'0 0.0
2018-Apr-20 08:01N 48°58' W 057°57'4236.8
2018-Apr-20 08:00N 48°54' W 057°54'4 8.2 350 / 81009.4 0.1-1.2
2018-Apr-20 07:31N 48°58' W 057°57'0 0.0
2018-Apr-20 07:01N 48°58' W 057°57'0 0.0
2018-Apr-20 06:31N 48°58' W 057°57'0 0.0
2018-Apr-20 06:01N 48°58' W 057°57'4236.8
2018-Apr-20 06:00N 48°54' W 057°54'4 8.2 360 / 11009.5 -0.2-0.6
2018-Apr-20 05:31N 48°58' W 057°57'0 0.0
2018-Apr-20 05:01N 48°58' W 057°57'4236.8
2018-Apr-20 05:00N 48°54' W 057°54'4 8.2 340 / 61010.1 -0.3-0.7
2018-Apr-20 04:31N 48°58' W 057°57'0 0.0
2018-Apr-20 04:01N 48°58' W 057°57'4236.8
2018-Apr-20 04:00N 48°54' W 057°54'4 8.2 330 / 31010.2 -0.0-0.6
2018-Apr-20 03:31N 48°58' W 057°57'0 0.0
2018-Apr-20 03:01N 48°58' W 057°57'4236.8
2018-Apr-20 03:00N 48°54' W 057°54'4 8.2 360 / 11009.8 0.3-0.3
2018-Apr-20 02:31N 48°58' W 057°57'0 0.0
2018-Apr-20 02:01N 48°58' W 057°57'4236.8
2018-Apr-20 02:00N 48°54' W 057°54'4 8.1 340 / 11010.3 0.3-0.3
2018-Apr-20 01:30N 48°58' W 057°57'0 0.0
2018-Apr-20 01:01N 48°58' W 057°57'4236.8
2018-Apr-20 01:00N 48°54' W 057°54'4 8.2 170 / 41010.7 -0.0-0.6
2018-Apr-20 00:31N 48°58' W 057°57'0 0.0
2018-Apr-20 00:01N 48°58' W 057°57'4236.8
2018-Apr-20 00:00N 48°54' W 057°54'4 8.2 190 / 81009.9 0.2-0.0
2018-Apr-19 23:31N 48°58' W 057°57'0 0.0
2018-Apr-19 23:01N 48°58' W 057°57'4236.8
2018-Apr-19 23:00N 48°54' W 057°54'4 8.2 170 / 81009.0 0.3 0.1
2018-Apr-19 22:31N 48°58' W 057°57'0 0.0
2018-Apr-19 22:01N 48°58' W 057°57'4236.8
2018-Apr-19 22:00N 48°54' W 057°54'4 8.2 180 / 81008.4 1.0 0.7
2018-Apr-19 21:31N 48°58' W 057°57'0 0.0
2018-Apr-19 21:01N 48°58' W 057°57'4236.8
2018-Apr-19 21:00N 48°54' W 057°54'4 8.2 210 / 51007.5 1.8 0.7
2018-Apr-19 20:31N 48°58' W 057°57'0 0.0
2018-Apr-19 20:01N 48°58' W 057°57'4236.8
2018-Apr-19 20:00N 48°54' W 057°54'4 8.2 210 / 71006.7 2.1 0.9
2018-Apr-19 19:31N 48°58' W 057°57'0 0.0
2018-Apr-19 19:01N 48°58' W 057°57'4236.8
2018-Apr-19 19:00N 48°54' W 057°54'4 8.2 170 / 111005.0 2.6 0.6
2018-Apr-19 18:31N 48°58' W 057°57'0 0.0
2018-Apr-19 18:01N 48°58' W 057°57'4229.2
2018-Apr-19 18:00N 48°54' W 057°54'4 8.2 200 / 91004.0 2.9 0.2
2018-Apr-19 17:31N 48°58' W 057°57'0 0.0
2018-Apr-19 17:01N 48°58' W 057°57'4236.8
2018-Apr-19 17:00N 48°54' W 057°54'4 8.1 200 / 71003.3 3.3 1.2
2018-Apr-19 16:30N 48°58' W 057°57'0 0.0
2018-Apr-19 16:00N 48°58' W 057°57'4284.2
2018-Apr-19 16:00N 48°54' W 057°54'4 8.1 170 / 61002.6 3.5 1.3
2018-Apr-19 15:30N 48°58' W 057°57'0 0.0
2018-Apr-19 15:01N 48°58' W 057°57'4236.8
2018-Apr-19 15:00N 48°54' W 057°54'4 8.2 200 / 61001.9 2.8 1.0
2018-Apr-19 14:31N 48°58' W 057°57'0 0.0
2018-Apr-19 14:00N 48°58' W 057°57'4245.0
2018-Apr-19 14:00N 48°54' W 057°54'4 8.2 210 / 31001.2 3.4 0.8
2018-Apr-19 13:31N 48°58' W 057°57'0 0.0
2018-Apr-19 13:01N 48°58' W 057°57'4236.8
2018-Apr-19 13:00N 48°54' W 057°54'4 8.2 130 / 71000.5 3.5 0.8
2018-Apr-19 12:31N 48°58' W 057°57'0 0.0
2018-Apr-19 12:01N 48°58' W 057°57'4236.8
2018-Apr-19 12:00N 48°54' W 057°54'4 8.2 150 / 81000.0 2.8 1.2
2018-Apr-19 11:31N 48°58' W 057°57'0 0.0
2018-Apr-19 11:00N 48°58' W 057°57'4253.8
2018-Apr-19 11:00N 48°54' W 057°54'4 8.1 130 / 4999.6 3.2 1.1
2018-Apr-19 10:30N 48°58' W 057°57'0 0.0
2018-Apr-19 10:00N 48°58' W 057°57'4245.0
2018-Apr-19 10:00N 48°54' W 057°54'4 8.1 160 / 2999.1 2.3 1.4
2018-Apr-19 09:30N 48°58' W 057°57'0 0.0
2018-Apr-19 09:01N 48°58' W 057°57'4236.8
2018-Apr-19 09:00N 48°54' W 057°54'4 8.2 170 / 4998.6 2.2 1.3
2018-Apr-19 08:31N 48°58' W 057°57'0 0.0
2018-Apr-19 08:01N 48°58' W 057°57'4236.8
2018-Apr-19 08:00N 48°54' W 057°54'4 8.2 190 / 3998.2 2.6 1.7
2018-Apr-19 07:31N 48°58' W 057°57'0 0.0
2018-Apr-19 07:01N 48°58' W 057°57'4236.8
2018-Apr-19 07:00N 48°54' W 057°54'4 8.2 190 / 4997.7 2.5 2.2
2018-Apr-19 06:31N 48°58' W 057°57'0 0.0
2018-Apr-19 06:00N 48°58' W 057°57'4263.2
2018-Apr-19 06:00N 48°54' W 057°54'4 8.2 997.4 2.0 1.9
2018-Apr-19 05:31N 48°58' W 057°57'0 0.0
2018-Apr-19 05:01N 48°58' W 057°57'4236.8
2018-Apr-19 05:00N 48°54' W 057°54'4 8.2 997.4 2.6 2.5
2018-Apr-19 04:31N 48°58' W 057°57'0 0.0
2018-Apr-19 04:01N 48°58' W 057°57'4236.8
2018-Apr-19 04:00N 48°54' W 057°54'4 8.2 330 / 3997.7 1.8 1.7
2018-Apr-19 03:31N 48°58' W 057°57'0 0.0
2018-Apr-19 03:01N 48°58' W 057°57'4236.8
2018-Apr-19 03:00N 48°54' W 057°54'4 8.1 350 / 2997.7 2.0 1.8
2018-Apr-19 02:30N 48°58' W 057°57'0 0.0
2018-Apr-19 02:01N 48°58' W 057°57'4236.8
2018-Apr-19 02:00N 48°54' W 057°54'4 8.2 998.0 2.1 1.9
2018-Apr-19 01:31N 48°58' W 057°57'0 0.0
2018-Apr-19 01:01N 48°58' W 057°57'4236.8
2018-Apr-19 01:00N 48°54' W 057°54'4 8.2 330 / 1998.3 2.1 1.9
2018-Apr-19 00:31N 48°58' W 057°57'0 0.0
2018-Apr-19 00:01N 48°58' W 057°57'0 0.0
2018-Apr-18 23:31N 48°58' W 057°57'0 0.0
2018-Apr-18 23:01N 48°58' W 057°57'4236.8
2018-Apr-18 23:00N 48°54' W 057°54'4 8.2 030 / 1997.9 2.9 2.7
2018-Apr-18 22:31N 48°58' W 057°57'0 0.0
2018-Apr-18 22:01N 48°58' W 057°57'4236.8
2018-Apr-18 22:00N 48°54' W 057°54'4 8.2 340 / 4997.4 3.1 2.9
2018-Apr-18 21:31N 48°58' W 057°57'0 0.0
2018-Apr-18 21:01N 48°58' W 057°57'4229.2
2018-Apr-18 21:00N 48°54' W 057°54'4 8.2 360 / 5997.6 3.6 3.0
2018-Apr-18 20:31N 48°58' W 057°57'0 0.0
2018-Apr-18 20:01N 48°58' W 057°57'4236.8
2018-Apr-18 20:00N 48°54' W 057°54'613.1 360 / 5997.5 4.3 3.0
2018-Apr-18 19:31N 48°59' W 058°01'510.7
2018-Apr-18 19:01N 49°02' W 058°07'2110.1
2018-Apr-18 19:00N 49°00' W 058°06'814.3 100 / 17997.6 3.7 2.6
2018-Apr-18 18:25N 49°08' W 058°10'511.5
2018-Apr-18 18:00N 49°12' W 058°11'135.7
2018-Apr-18 18:00N 49°12' W 058°12'710.2 060 / 21997.7 3.4 2.1
2018-Apr-18 17:16N 49°17' W 058°20'2 6.0
2018-Apr-18 17:00N 49°18' W 058°18'3301.3 080 / 21997.7 4.5 2.6
2018-Apr-18 16:59N 49°21' W 058°21'1515.3
2018-Apr-18 16:00N 49°36' W 058°18'2110.7 080 / 27998.0 3.1 1.9
2018-Apr-18 14:00N 49°54' W 058°00'2019.6 080 / 241000.8 3.1 0.8
2018-Apr-18 13:00N 50°12' W 057°48'2512.6 070 / 261001.6 1.6 0.7
2018-Apr-18 11:00N 50°36' W 057°36'1414.2 030 / 161005.4 -0.0-1.1
2018-Apr-18 10:00N 50°48' W 057°24'7 7.1 030 / 171007.9 0.1-0.7
2018-Apr-18 09:00N 50°54' W 057°18'1312.6 030 / 181009.0 -1.8-2.2
2018-Apr-18 08:00N 51°06' W 057°12'4 3.8 020 / 281009.1 -2.5-3.5
2018-Apr-18 07:00N 51°06' W 057°06'6 6.0 020 / 261012.1 -2.3-4.6
2018-Apr-18 06:00N 51°12' W 057°06'0 0.0 020 / 271013.5 -2.4-4.9
2018-Apr-18 05:00N 51°12' W 057°06'0 0.0 030 / 251014.8 -2.2-4.4
2018-Apr-18 04:00N 51°12' W 057°06'6 6.0 040 / 281015.7 -2.1-4.7
2018-Apr-18 03:00N 51°06' W 057°06'4 3.8 040 / 221016.8 -1.3-5.1
2018-Apr-18 02:00N 51°06' W 057°12'6 6.0 030 / 221016.9 -1.2-4.9
2018-Apr-18 01:00N 51°00' W 057°12'7 7.1 050 / 241018.3 -1.1-5.1
2018-Apr-18 00:00N 50°54' W 057°18'4 3.8 020 / 181018.4 -0.0-3.2
2018-Apr-17 23:00N 50°54' W 057°24'7 7.1 010 / 131019.0 0.4-2.1
2018-Apr-17 22:00N 50°48' W 057°30'6 6.0 350 / 151019.0 -0.2-3.7
2018-Apr-17 21:00N 50°42' W 057°30'1312.9 350 / 101019.2 0.3-4.3
2018-Apr-17 20:00N 50°36' W 057°12'0 0.0 050 / 81020.2 5.4-8.1
2018-Apr-17 19:00N 50°36' W 057°12'0 0.0 350 / 171020.6 4.7-9.7
2018-Apr-17 18:00N 50°36' W 057°12'0 0.0 340 / 101021.5 4.6-9.5
2018-Apr-17 17:00N 50°36' W 057°12'0 0.0 290 / 111021.8 2.8-7.1
2018-Apr-17 16:00N 50°36' W 057°12'0 0.0 210 / 31022.5 5.6-3.8
2018-Apr-17 15:00N 50°36' W 057°12'0 0.0 310 / 21023.9 2.0-4.6
2018-Apr-17 14:00N 50°36' W 057°12'0 0.0 220 / 21024.4 2.1-4.3
2018-Apr-17 13:00N 50°36' W 057°12'0 0.0 330 / 71024.9 0.4-3.2
2018-Apr-17 12:00N 50°36' W 057°12'4 3.8 340 / 81025.4 -1.3-3.9
2018-Apr-17 11:00N 50°36' W 057°18'8 7.6 040 / 101024.8 -4.6-5.8
2018-Apr-17 10:00N 50°36' W 057°30'4 3.8 350 / 61024.5 -0.8-1.5
2018-Apr-17 09:00N 50°36' W 057°36'6 6.0 300 / 61024.7 -0.8-3.1
2018-Apr-17 08:00N 50°30' W 057°36'7 7.1 190 / 111024.9 -1.1-1.3
2018-Apr-17 07:00N 50°24' W 057°42'7 7.1 190 / 141025.1 -1.3-1.9
2018-Apr-17 06:00N 50°18' W 057°48'7 3.6 180 / 171025.2 -1.3-2.7
2018-Apr-17 04:00N 50°12' W 057°54'6 6.0 180 / 191026.0 -1.5-3.2
2018-Apr-17 03:00N 50°06' W 057°54'0 0.0 170 / 181026.3 -1.8-3.5
2018-Apr-17 02:00N 50°06' W 057°54'1312.6 180 / 181027.0 -1.7-4.0
2018-Apr-17 01:00N 49°54' W 058°00'7 7.1 190 / 191027.6 -1.9-4.8
2018-Apr-17 00:00N 49°48' W 058°06'7 7.1 180 / 161028.3 -2.0-5.8
2018-Apr-16 23:00N 49°42' W 058°12'1312.6 210 / 161029.3 -2.1-6.8
2018-Apr-16 22:00N 49°30' W 058°18'1312.6 210 / 161029.9 -1.5-7.6
2018-Apr-16 21:00N 49°18' W 058°24'116.0 200 / 141030.2 -1.3-8.6
2018-Apr-16 20:56N 49°18' W 058°23'614.0
2018-Apr-16 20:30N 49°15' W 058°15'4 9.0
2018-Apr-16 20:00N 49°10' W 058°15'3224.1
2018-Apr-16 20:00N 49°12' W 058°18'910.4 260 / 91030.5 -1.8-8.3
2018-Apr-16 19:05N 49°05' W 058°09'112.9
2018-Apr-16 19:01N 49°04' W 058°09'3181.2
2018-Apr-16 19:00N 49°06' W 058°06'715.4 270 / 191030.4 -1.3-8.4
2018-Apr-16 18:31N 48°59' W 058°03'4 8.3
2018-Apr-16 18:01N 48°58' W 057°57'4236.8
2018-Apr-16 18:00N 48°54' W 057°54'4 8.2 200 / 121031.0 -0.0-9.5
2018-Apr-16 17:30N 48°58' W 057°57'0 0.0
2018-Apr-16 17:01N 48°58' W 057°57'0 0.0
2018-Apr-16 16:30N 48°58' W 057°57'0 0.0
2018-Apr-16 16:00N 48°58' W 057°57'4268.1
2018-Apr-16 16:00N 48°54' W 057°54'4 7.4 190 / 141031.0 -1.3-9.2
2018-Apr-16 15:27N 48°58' W 057°57'0 0.0
2018-Apr-16 15:00N 48°58' W 057°57'4273.3
2018-Apr-16 15:00N 48°54' W 057°54'4 8.1 190 / 111032.1 -1.2-7.7
2018-Apr-16 14:30N 48°58' W 057°57'0 0.0
2018-Apr-16 14:00N 48°58' W 057°57'4273.3
2018-Apr-16 14:00N 48°54' W 057°54'4 7.4 200 / 141032.6 -1.7-8.6
2018-Apr-16 13:27N 48°58' W 057°57'0 0.0
2018-Apr-16 13:00N 48°58' W 057°57'4268.1
2018-Apr-16 13:00N 48°54' W 057°54'4 7.9 200 / 141032.6 -1.1-9.1
2018-Apr-16 12:30N 48°58' W 057°57'0 0.0
2018-Apr-16 12:01N 48°58' W 057°57'4236.8
2018-Apr-16 12:00N 48°54' W 057°54'4 8.2 220 / 131033.0 -0.8-8.9
2018-Apr-16 11:31N 48°58' W 057°57'0 0.0
2018-Apr-16 11:01N 48°58' W 057°57'4236.8
2018-Apr-16 11:00N 48°54' W 057°54'   320 / 11033.2 -2.9-6.8

Dump ship's entire track history